Time;durP1;ratioP1;P1;durP2;ratioP2;P2;SDS_P1;SDS_P2;PMS_P1;PMS_P2;Temp;Humidity;BMP_temperature;BMP_pressure;BME280_temperature;BME280_humidity;BME280_pressure;Samples;Min_cycle;Max_cycle;Signal;HPM_P1;HPM_P2
2022/03/31 00:00:25;;;;;;;25.20;24.30;;;20.30;49.40;;;;;;5072753;28;20473;-51
2022/03/31 00:02:52;;;;;;;25.00;24.10;;;20.20;49.50;;;;;;5073570;28;20463;-54
2022/03/31 00:05:19;;;;;;;25.03;24.13;;;20.20;49.50;;;;;;5073162;28;20448;-51
2022/03/31 00:07:50;;;;;;;24.80;23.80;;;20.20;49.60;;;;;;5073304;28;20447;-50
2022/03/31 00:10:20;;;;;;;25.23;24.33;;;20.20;49.70;;;;;;5073435;28;20446;-50
2022/03/31 00:12:47;;;;;;;26.07;24.67;;;20.10;49.60;;;;;;5073266;28;20525;-53
2022/03/31 00:15:14;;;;;;;25.03;24.03;;;20.10;49.70;;;;;;5073063;28;20454;-54
2022/03/31 00:17:43;;;;;;;25.63;24.73;;;20.10;49.80;;;;;;5073152;28;20522;-51
2022/03/31 00:20:11;;;;;;;26.40;25.50;;;20.10;49.90;;;;;;5073242;28;20450;-52
2022/03/31 00:22:38;;;;;;;27.00;25.93;;;20.10;49.90;;;;;;5073159;28;20463;-51
2022/03/31 00:25:06;;;;;;;25.30;24.30;;;20.10;50.00;;;;;;5073015;28;20811;-50
2022/03/31 00:27:32;;;;;;;26.17;25.27;;;20.10;50.00;;;;;;5072949;28;20439;-53
2022/03/31 00:29:59;;;;;;;26.27;25.37;;;20.10;50.00;;;;;;5072997;28;20830;-52
2022/03/31 00:32:26;;;;;;;25.87;24.87;;;20.20;50.00;;;;;;5072896;28;20443;-50
2022/03/31 00:34:54;;;;;;;25.70;24.70;;;20.20;50.00;;;;;;5072528;28;20444;-55
2022/03/31 00:37:21;;;;;;;26.30;25.30;;;20.30;49.90;;;;;;5072692;28;20848;-52
2022/03/31 00:39:48;;;;;;;25.37;24.43;;;20.40;49.80;;;;;;5072795;28;20448;-50
2022/03/31 00:42:15;;;;;;;26.63;25.60;;;20.40;49.70;;;;;;5072549;28;20531;-53
2022/03/31 00:44:42;;;;;;;25.63;24.63;;;20.40;49.50;;;;;;5072722;28;20440;-51
2022/03/31 00:47:09;;;;;;;25.70;24.80;;;20.50;49.50;;;;;;5072445;28;20950;-51
2022/03/31 00:49:36;;;;;;;27.50;26.43;;;20.50;49.40;;;;;;5072581;28;20448;-52
2022/03/31 00:52:06;;;;;;;27.10;26.10;;;20.50;49.40;;;;;;5072623;28;20445;-54
2022/03/31 00:54:34;;;;;;;26.10;25.00;;;20.50;49.30;;;;;;5072175;28;20482;-52
2022/03/31 00:57:03;;;;;;;27.90;26.70;;;20.50;49.10;;;;;;5072172;28;21008;-50
2022/03/31 00:59:31;;;;;;;29.60;28.50;;;20.60;49.10;;;;;;5072513;28;20440;-51
2022/03/31 01:01:59;;;;;;;25.80;24.80;;;20.60;49.00;;;;;;5072042;28;20451;-52
2022/03/31 01:04:27;;;;;;;25.50;24.50;;;20.60;49.00;;;;;;5072291;28;20467;-51
2022/03/31 01:06:54;;;;;;;24.97;24.07;;;20.60;49.00;;;;;;5072080;28;20447;-50
2022/03/31 01:09:22;;;;;;;26.70;25.70;;;20.60;48.90;;;;;;5072289;28;20803;-51
2022/03/31 01:11:49;;;;;;;26.60;25.60;;;20.60;48.90;;;;;;5071990;28;20811;-52
2022/03/31 01:14:16;;;;;;;27.07;26.07;;;20.50;48.90;;;;;;5071928;28;20474;-52
2022/03/31 01:16:43;;;;;;;26.37;25.37;;;20.50;48.90;;;;;;5071892;28;20487;-52
2022/03/31 01:19:12;;;;;;;26.40;25.40;;;20.50;48.90;;;;;;5072135;28;20443;-54
2022/03/31 01:21:40;;;;;;;26.30;25.40;;;20.50;48.90;;;;;;5071971;28;20450;-52
2022/03/31 01:24:10;;;;;;;26.10;25.20;;;20.50;48.90;;;;;;5071828;28;20463;-52
2022/03/31 01:26:38;;;;;;;25.10;24.20;;;20.40;48.90;;;;;;5071902;28;20447;-53
2022/03/31 01:29:05;;;;;;;26.87;25.97;;;20.40;49.00;;;;;;5071983;28;20474;-52
2022/03/31 01:31:32;;;;;;;25.77;24.77;;;20.40;49.00;;;;;;5071982;28;20827;-52
2022/03/31 01:34:00;;;;;;;25.77;24.87;;;20.40;49.10;;;;;;5071525;28;20542;-52
2022/03/31 01:36:27;;;;;;;25.67;24.67;;;20.30;49.20;;;;;;5071543;28;20451;-56
2022/03/31 01:38:55;;;;;;;25.63;24.73;;;20.20;49.30;;;;;;5071894;28;20443;-52
2022/03/31 01:41:23;;;;;;;26.30;25.30;;;20.20;50.00;;;;;;5071782;28;20451;-50
2022/03/31 01:43:50;;;;;;;26.00;25.00;;;20.10;50.00;;;;;;5071204;28;20828;-51
2022/03/31 01:46:17;;;;;;;26.10;25.10;;;20.10;49.60;;;;;;5071517;28;20858;-51
2022/03/31 01:48:43;;;;;;;26.37;25.23;;;20.10;49.70;;;;;;5071386;28;20943;-50
2022/03/31 01:51:12;;;;;;;26.10;25.13;;;20.00;49.70;;;;;;5071744;28;20447;-52
2022/03/31 01:53:39;;;;;;;26.57;25.57;;;20.00;49.80;;;;;;5071177;28;20480;-54
2022/03/31 01:56:07;;;;;;;24.40;23.50;;;20.00;49.80;;;;;;5071376;28;20806;-52
2022/03/31 01:58:37;;;;;;;27.87;26.87;;;20.00;49.90;;;;;;5071434;28;20475;-51
2022/03/31 02:01:06;;;;;;;26.40;25.40;;;20.00;50.00;;;;;;5071561;28;20455;-53
2022/03/31 02:03:33;;;;;;;28.33;27.23;;;19.90;50.00;;;;;;5071160;28;20479;-52
2022/03/31 02:06:00;;;;;;;27.10;26.10;;;19.90;50.10;;;;;;5071307;28;20447;-53
2022/03/31 02:08:27;;;;;;;25.93;25.00;;;19.90;50.20;;;;;;5071573;28;20446;-51
2022/03/31 02:10:53;;;;;;;26.87;25.70;;;19.90;50.30;;;;;;5071324;28;20451;-54
2022/03/31 02:13:20;;;;;;;26.20;25.20;;;19.90;50.40;;;;;;5071235;28;20463;-54
2022/03/31 02:15:48;;;;;;;26.20;25.20;;;19.90;50.40;;;;;;5071261;28;20773;-52
2022/03/31 02:18:15;;;;;;;26.33;25.33;;;19.90;50.50;;;;;;5071029;28;20673;-53
2022/03/31 02:20:42;;;;;;;25.87;24.90;;;19.90;50.50;;;;;;5071089;28;20526;-51
2022/03/31 02:23:09;;;;;;;25.67;24.77;;;19.90;50.50;;;;;;5071343;28;20875;-56
2022/03/31 02:25:36;;;;;;;26.50;25.60;;;20.00;50.50;;;;;;5074652;28;20452;-52
2022/03/31 02:28:03;;;;;;;26.00;25.10;;;20.00;50.40;;;;;;5075382;28;20536;-51
2022/03/31 02:30:30;;;;;;;27.80;26.80;;;20.10;50.30;;;;;;5075216;28;20894;-54
2022/03/31 02:33:00;;;;;;;26.87;25.87;;;20.10;50.10;;;;;;5055189;28;20460;-53
2022/03/31 02:35:27;;;;;;;26.30;25.30;;;20.20;50.20;;;;;;5055278;28;20856;-52
2022/03/31 02:37:54;;;;;;;26.73;25.73;;;20.10;50.00;;;;;;5055143;28;21060;-52
2022/03/31 02:40:21;;;;;;;26.40;25.40;;;20.20;50.00;;;;;;5055067;28;20966;-51
2022/03/31 02:42:48;;;;;;;27.20;26.20;;;20.20;49.90;;;;;;5073870;28;20833;-52
2022/03/31 02:45:15;;;;;;;26.40;25.40;;;20.20;49.80;;;;;;5075133;28;20814;-54
2022/03/31 02:47:44;;;;;;;26.83;25.83;;;20.20;49.80;;;;;;5074712;28;20523;-54
2022/03/31 02:50:13;;;;;;;27.87;26.77;;;20.20;49.70;;;;;;5074932;28;20996;-51
2022/03/31 02:55:29;;;;;;;27.07;26.07;;;20.20;49.70;;;;;;5074676;28;20438;-51
2022/03/31 02:57:57;;;;;;;27.70;26.70;;;20.20;49.70;;;;;;5074731;28;20540;-54
2022/03/31 03:00:24;;;;;;;28.23;27.13;;;20.20;49.70;;;;;;5074676;28;20956;-51
2022/03/31 03:02:51;;;;;;;28.03;27.03;;;20.20;49.80;;;;;;5074173;28;20469;-52
2022/03/31 03:05:20;;;;;;;28.07;27.00;;;20.20;49.80;;;;;;5074661;28;20458;-54
2022/03/31 03:07:46;;;;;;;28.00;27.00;;;20.20;49.70;;;;;;5074353;28;20440;-55
2022/03/31 03:10:14;;;;;;;27.77;26.77;;;20.20;49.80;;;;;;5074509;28;20447;-51
2022/03/31 03:12:42;;;;;;;28.63;27.57;;;20.10;49.80;;;;;;5074227;28;20552;-54
2022/03/31 03:15:09;;;;;;;28.60;27.60;;;20.10;49.90;;;;;;5074554;28;20861;-51
2022/03/31 03:17:36;;;;;;;28.23;27.03;;;20.00;50.00;;;;;;5074062;28;20474;-52
2022/03/31 03:20:04;;;;;;;27.53;26.53;;;20.00;50.10;;;;;;5074343;28;21056;-54
2022/03/31 03:22:32;;;;;;;27.40;26.40;;;19.90;50.10;;;;;;5074014;28;20451;-53
2022/03/31 03:24:59;;;;;;;27.70;26.60;;;19.90;50.20;;;;;;5074143;28;20502;-56
2022/03/31 03:27:26;;;;;;;29.10;27.90;;;19.90;50.30;;;;;;5074056;28;20497;-50
2022/03/31 03:29:54;;;;;;;29.00;28.00;;;19.90;50.40;;;;;;5074152;28;20501;-53
2022/03/31 03:32:21;;;;;;;27.80;26.60;;;19.80;50.40;;;;;;5073182;28;20946;-51
2022/03/31 03:34:48;;;;;;;27.73;26.70;;;19.80;50.50;;;;;;5073875;28;20956;-51
2022/03/31 03:37:15;;;;;;;29.80;28.70;;;19.80;50.50;;;;;;5073767;28;20448;-56
2022/03/31 03:39:44;;;;;;;29.40;28.30;;;19.80;50.60;;;;;;5074002;28;20451;-53
2022/03/31 03:42:11;;;;;;;27.87;26.87;;;19.80;50.70;;;;;;5073724;28;20978;-52
2022/03/31 03:44:38;;;;;;;27.50;26.40;;;19.70;50.70;;;;;;5073875;28;20834;-52
2022/03/31 03:47:06;;;;;;;27.53;26.53;;;19.70;50.70;;;;;;5073689;28;20881;-51
2022/03/31 03:49:33;;;;;;;27.40;26.40;;;19.70;50.80;;;;;;5073901;28;20447;-50
2022/03/31 03:51:59;;;;;;;28.23;27.03;;;19.70;50.80;;;;;;5073544;28;20443;-51
2022/03/31 03:54:27;;;;;;;27.30;26.30;;;19.70;50.90;;;;;;5073309;28;20845;-52
2022/03/31 03:56:55;;;;;;;27.47;26.47;;;19.70;51.00;;;;;;5073513;28;20459;-50
2022/03/31 03:59:22;;;;;;;29.33;28.17;;;19.70;51.10;;;;;;5073627;28;20483;-51
2022/03/31 04:01:48;;;;;;;29.03;27.87;;;19.70;51.10;;;;;;5073580;28;20443;-53
2022/03/31 04:04:15;;;;;;;28.30;27.30;;;19.70;51.10;;;;;;5073233;28;20471;-51
2022/03/31 04:06:42;;;;;;;29.13;28.10;;;19.70;51.20;;;;;;5073244;28;20448;-54
2022/03/31 04:09:09;;;;;;;29.57;28.47;;;19.70;51.20;;;;;;5073503;28;20449;-50
2022/03/31 04:11:36;;;;;;;29.13;27.90;;;19.70;51.20;;;;;;5073234;28;20443;-50
2022/03/31 04:14:04;;;;;;;28.30;27.30;;;19.70;51.30;;;;;;5073211;28;21097;-52
2022/03/31 04:16:31;;;;;;;27.50;26.27;;;19.70;51.30;;;;;;5073100;28;20444;-54
2022/03/31 04:18:57;;;;;;;28.50;27.40;;;19.80;51.40;;;;;;5073153;28;20486;-52
2022/03/31 04:21:24;;;;;;;29.17;28.13;;;19.80;51.30;;;;;;5073062;28;20455;-51
2022/03/31 04:23:51;;;;;;;28.60;27.50;;;19.90;51.20;;;;;;5073075;28;20486;-51
2022/03/31 04:26:18;;;;;;;29.40;28.20;;;20.00;51.10;;;;;;5072942;28;20439;-52
2022/03/31 04:28:44;;;;;;;28.80;27.60;;;20.00;51.00;;;;;;5073238;28;20815;-51
2022/03/31 04:31:12;;;;;;;27.83;26.73;;;20.00;50.90;;;;;;5072711;28;20450;-50
2022/03/31 04:33:39;;;;;;;30.10;28.90;;;20.00;50.80;;;;;;5072797;28;20467;-51
2022/03/31 04:36:06;;;;;;;30.20;29.03;;;20.10;50.90;;;;;;5072663;28;20448;-52
2022/03/31 04:38:33;;;;;;;28.37;27.17;;;20.10;50.80;;;;;;5072712;28;20480;-57
2022/03/31 04:40:59;;;;;;;28.37;27.27;;;20.10;50.80;;;;;;5072743;28;20821;-51
2022/03/31 04:43:26;;;;;;;28.77;27.67;;;20.10;50.70;;;;;;5071678;28;20821;-50
2022/03/31 04:45:53;;;;;;;30.50;29.30;;;20.10;50.70;;;;;;5072449;28;20448;-56
2022/03/31 04:48:21;;;;;;;29.13;27.93;;;20.10;50.70;;;;;;5071942;28;20435;-50
2022/03/31 04:50:48;;;;;;;28.90;27.80;;;20.10;50.70;;;;;;5072627;28;20450;-52
2022/03/31 04:53:17;;;;;;;28.43;27.20;;;20.10;50.80;;;;;;5071923;28;20854;-51
2022/03/31 04:55:44;;;;;;;28.87;27.57;;;20.10;50.80;;;;;;5072364;28;20883;-55
2022/03/31 04:58:11;;;;;;;29.20;28.10;;;20.10;50.80;;;;;;5072405;28;20487;-51
2022/03/31 05:00:38;;;;;;;29.60;28.40;;;20.00;50.90;;;;;;5072341;28;20440;-54
2022/03/31 05:03:04;;;;;;;30.13;28.60;;;20.00;51.90;;;;;;5072003;28;20475;-52
2022/03/31 05:05:32;;;;;;;32.03;30.40;;;19.90;52.90;;;;;;5072247;28;20443;-51
2022/03/31 05:07:59;;;;;;;32.63;30.53;;;19.90;56.50;;;;;;5072281;28;20440;-52
2022/03/31 05:10:26;;;;;;;33.67;31.53;;;19.80;58.00;;;;;;5072215;28;20969;-53
2022/03/31 05:12:53;;;;;;;32.97;30.70;;;19.80;59.80;;;;;;5071898;28;20478;-51
2022/03/31 05:15:19;;;;;;;31.07;29.40;;;19.80;62.30;;;;;;5071922;28;20447;-50
2022/03/31 05:17:46;;;;;;;31.77;29.97;;;19.80;63.30;;;;;;5071939;28;20447;-53
2022/03/31 05:20:14;;;;;;;31.73;29.93;;;19.70;63.70;;;;;;5072093;28;20941;-50
2022/03/31 05:22:42;;;;;;;31.50;29.73;;;19.70;63.60;;;;;;5071636;28;20475;-51
2022/03/31 05:25:11;;;;;;;32.30;30.60;;;19.70;63.30;;;;;;5071919;28;20439;-51
2022/03/31 05:27:43;;;;;;;30.70;29.10;;;19.70;62.80;;;;;;5071672;28;20459;-55
2022/03/31 05:30:11;;;;;;;31.60;30.00;;;19.70;62.30;;;;;;5071821;28;20443;-53
2022/03/31 05:32:38;;;;;;;33.27;31.10;;;19.70;61.90;;;;;;5071664;28;20464;-52
2022/03/31 05:35:05;;;;;;;31.20;29.50;;;19.60;61.30;;;;;;5071784;28;20448;-56
2022/03/31 05:37:33;;;;;;;32.13;30.60;;;19.60;60.90;;;;;;5071606;28;20446;-51
2022/03/31 05:40:04;;;;;;;31.50;29.90;;;19.60;60.40;;;;;;5071629;28;20486;-50
2022/03/31 05:42:32;;;;;;;31.87;30.37;;;19.60;60.20;;;;;;5071669;28;20946;-51
2022/03/31 05:44:58;;;;;;;30.93;29.33;;;19.50;60.00;;;;;;5071679;28;20482;-51
2022/03/31 05:47:25;;;;;;;29.80;28.37;;;19.50;60.50;;;;;;5071284;28;20454;-53
2022/03/31 05:49:52;;;;;;;32.20;30.50;;;19.50;59.80;;;;;;5071553;28;20443;-50
2022/03/31 05:52:19;;;;;;;32.17;30.63;;;19.40;59.50;;;;;;5071357;28;20439;-57
2022/03/31 05:54:46;;;;;;;30.80;29.30;;;19.40;59.40;;;;;;5072073;28;20440;-52
2022/03/31 05:57:14;;;;;;;31.50;29.47;;;19.40;59.30;;;;;;5071323;28;20441;-54
2022/03/31 05:59:41;;;;;;;30.80;29.10;;;19.40;59.20;;;;;;5070560;28;20526;-55
2022/03/31 06:02:08;;;;;;;30.47;29.07;;;19.40;59.10;;;;;;5071453;28;20458;-51
2022/03/31 06:04:35;;;;;;;31.80;30.20;;;19.40;58.90;;;;;;5071350;28;20467;-55
2022/03/31 06:07:02;;;;;;;32.97;30.90;;;19.40;58.60;;;;;;5071324;28;20439;-54
2022/03/31 06:09:29;;;;;;;31.10;29.70;;;19.50;58.40;;;;;;5071448;28;20470;-53
2022/03/31 06:11:55;;;;;;;30.40;28.60;;;19.50;58.20;;;;;;5071408;28;20480;-54
2022/03/31 06:14:24;;;;;;;31.43;29.97;;;19.60;58.00;;;;;;5071340;28;20474;-50
2022/03/31 06:16:52;;;;;;;31.07;29.70;;;19.60;57.60;;;;;;5071239;28;20785;-50
2022/03/31 06:19:19;;;;;;;32.30;30.50;;;19.70;57.30;;;;;;5071180;28;20479;-51
2022/03/31 06:21:46;;;;;;;31.00;29.70;;;19.70;57.00;;;;;;5071330;28;20960;-54
2022/03/31 06:24:13;;;;;;;31.20;29.90;;;19.80;56.80;;;;;;5071090;28;20471;-51
2022/03/31 06:26:39;;;;;;;32.07;30.37;;;19.90;56.60;;;;;;5070984;28;20443;-51
2022/03/31 06:29:07;;;;;;;32.43;30.57;;;19.90;56.20;;;;;;5071283;28;20451;-52
2022/03/31 06:31:37;;;;;;;29.63;28.30;;;20.00;55.80;;;;;;5071155;28;20447;-52
2022/03/31 06:34:05;;;;;;;28.03;26.73;;;20.00;55.50;;;;;;5071436;28;20608;-52
2022/03/31 06:36:32;;;;;;;29.20;27.80;;;20.00;55.20;;;;;;5071031;28;20814;-51
2022/03/31 06:38:59;;;;;;;30.30;28.90;;;20.10;55.10;;;;;;5071010;28;20485;-51
2022/03/31 06:41:26;;;;;;;30.60;29.20;;;20.00;54.80;;;;;;5071112;28;20451;-52
2022/03/31 06:43:53;;;;;;;31.80;30.50;;;20.00;54.80;;;;;;5071073;28;20467;-50
2022/03/31 06:46:19;;;;;;;32.33;30.93;;;20.00;54.80;;;;;;5070923;28;20439;-51
2022/03/31 06:48:48;;;;;;;31.67;30.37;;;19.90;54.70;;;;;;5071056;28;20818;-56
2022/03/31 06:51:17;;;;;;;31.30;29.80;;;19.90;54.70;;;;;;5071018;28;20447;-51
2022/03/31 06:53:45;;;;;;;32.90;31.47;;;19.90;54.70;;;;;;5070873;28;20479;-51
2022/03/31 06:56:16;;;;;;;31.57;30.10;;;19.90;54.70;;;;;;5070785;28;20810;-52
2022/03/31 06:58:44;;;;;;;32.60;31.10;;;19.80;54.50;;;;;;5070865;28;20476;-50
2022/03/31 07:01:11;;;;;;;32.17;30.80;;;19.90;54.60;;;;;;5071089;28;20447;-50
2022/03/31 07:03:38;;;;;;;33.07;31.67;;;19.90;54.50;;;;;;5070780;28;20467;-51
2022/03/31 07:06:07;;;;;;;35.00;33.50;;;19.80;54.30;;;;;;5070655;28;20444;-50
2022/03/31 07:08:34;;;;;;;34.10;32.67;;;19.90;54.30;;;;;;5070849;28;20447;-51
2022/03/31 07:11:01;;;;;;;32.53;31.03;;;19.90;54.20;;;;;;5073049;28;20451;-52
2022/03/31 07:13:28;;;;;;;33.20;31.80;;;19.90;54.20;;;;;;5074205;28;20467;-50
2022/03/31 07:15:55;;;;;;;31.13;29.73;;;19.80;54.10;;;;;;5074323;28;20454;-50
2022/03/31 07:18:21;;;;;;;33.00;31.70;;;19.80;54.10;;;;;;5074213;28;20952;-51
2022/03/31 07:20:49;;;;;;;30.33;28.83;;;19.80;54.00;;;;;;5074350;28;20443;-50
2022/03/31 07:23:18;;;;;;;30.30;28.67;;;19.70;54.00;;;;;;5074247;28;20478;-50
2022/03/31 07:25:45;;;;;;;28.53;27.20;;;19.70;54.10;;;;;;5074012;28;20883;-51
2022/03/31 07:28:12;;;;;;;29.93;28.63;;;19.70;54.10;;;;;;5074230;28;20443;-51
2022/03/31 07:30:39;;;;;;;29.40;28.10;;;19.60;54.10;;;;;;5074199;28;20450;-50
2022/03/31 07:33:06;;;;;;;30.87;29.57;;;19.60;54.10;;;;;;5074008;28;20471;-51
2022/03/31 07:35:34;;;;;;;30.83;29.53;;;19.60;54.10;;;;;;5074083;28;20443;-51
2022/03/31 07:38:03;;;;;;;30.73;29.43;;;19.60;54.10;;;;;;5073967;28;20458;-52
2022/03/31 07:40:32;;;;;;;30.57;29.27;;;19.60;54.10;;;;;;5073980;28;20483;-54
2022/03/31 07:42:59;;;;;;;32.17;30.80;;;19.60;54.10;;;;;;5073900;28;20460;-51
2022/03/31 07:45:26;;;;;;;31.80;30.40;;;19.60;54.10;;;;;;5073661;28;20449;-51
2022/03/31 07:47:52;;;;;;;32.00;30.70;;;19.60;54.00;;;;;;5073955;28;20451;-51
2022/03/31 07:50:20;;;;;;;31.90;30.60;;;19.60;54.00;;;;;;5073854;28;20436;-50
2022/03/31 07:52:46;;;;;;;34.53;33.10;;;19.60;54.00;;;;;;5073591;28;20475;-50
2022/03/31 07:55:15;;;;;;;33.80;32.40;;;19.50;53.90;;;;;;5073811;28;20800;-51
2022/03/31 07:57:44;;;;;;;33.37;31.97;;;19.50;54.50;;;;;;5073473;28;20466;-56
2022/03/31 08:00:14;;;;;;;32.93;31.63;;;19.60;54.00;;;;;;5073575;28;20998;-51
2022/03/31 08:02:41;;;;;;;32.27;30.97;;;19.60;53.90;;;;;;5073386;28;20463;-53
2022/03/31 08:05:09;;;;;;;31.73;30.53;;;19.70;53.70;;;;;;5073582;28;20851;-50
2022/03/31 08:07:36;;;;;;;31.60;30.40;;;19.80;53.50;;;;;;5073455;28;20443;-56
2022/03/31 08:10:04;;;;;;;33.67;32.10;;;20.00;53.30;;;;;;5073349;28;20436;-58
2022/03/31 08:12:31;;;;;;;31.27;29.97;;;20.10;52.90;;;;;;5073355;28;20530;-59
2022/03/31 08:14:59;;;;;;;32.87;31.43;;;20.20;52.50;;;;;;5073320;28;20943;-58
2022/03/31 08:17:27;;;;;;;33.90;32.50;;;20.30;52.20;;;;;;5073053;28;20958;-55
2022/03/31 08:19:54;;;;;;;32.63;31.23;;;20.40;52.00;;;;;;5073263;28;20483;-51
2022/03/31 08:22:21;;;;;;;31.70;30.40;;;20.40;51.70;;;;;;5072111;28;20450;-53
2022/03/31 08:24:48;;;;;;;34.57;33.07;;;20.40;51.60;;;;;;5073080;28;20444;-50
2022/03/31 08:27:15;;;;;;;31.90;30.50;;;20.50;51.40;;;;;;5072949;28;20447;-51
2022/03/31 08:29:42;;;;;;;34.43;33.03;;;20.50;51.30;;;;;;5072988;28;20447;-52
2022/03/31 08:32:10;;;;;;;32.63;31.30;;;20.50;51.20;;;;;;5073043;28;20460;-50
2022/03/31 08:34:37;;;;;;;33.73;32.30;;;20.50;51.10;;;;;;5073007;28;20506;-52
2022/03/31 08:37:04;;;;;;;32.73;31.33;;;20.50;51.00;;;;;;5072650;28;20444;-53
2022/03/31 08:39:31;;;;;;;31.57;30.27;;;20.50;51.00;;;;;;5072695;28;20475;-55
2022/03/31 08:41:58;;;;;;;32.70;31.40;;;20.50;51.50;;;;;;5072848;28;20825;-53
2022/03/31 08:44:25;;;;;;;32.80;31.60;;;20.50;50.90;;;;;;5072651;28;20913;-50
2022/03/31 08:46:52;;;;;;;32.90;31.50;;;20.50;50.80;;;;;;5072473;28;20455;-52
2022/03/31 08:49:21;;;;;;;33.67;32.37;;;20.40;50.80;;;;;;5072566;28;20467;-55
2022/03/31 08:51:48;;;;;;;33.10;31.80;;;20.40;50.70;;;;;;5072531;28;20447;-56
2022/03/31 08:54:14;;;;;;;32.43;31.13;;;20.40;50.70;;;;;;5072379;28;20479;-52
2022/03/31 08:56:41;;;;;;;31.10;29.90;;;20.40;50.70;;;;;;5072207;28;20947;-51
2022/03/31 08:59:08;;;;;;;32.10;30.90;;;20.30;50.70;;;;;;5072418;28;20479;-53
2022/03/31 09:01:38;;;;;;;34.43;33.13;;;20.30;50.80;;;;;;5072434;28;20451;-52
2022/03/31 09:04:05;;;;;;;30.63;29.53;;;20.20;50.80;;;;;;5072302;28;20486;-50
2022/03/31 09:06:33;;;;;;;30.47;29.20;;;20.20;50.90;;;;;;5072137;28;20454;-52
2022/03/31 09:09:02;;;;;;;32.67;31.30;;;20.30;50.90;;;;;;5072132;28;20473;-54
2022/03/31 09:11:29;;;;;;;30.27;29.00;;;20.20;50.80;;;;;;5072280;28;20443;-52
2022/03/31 09:13:57;;;;;;;30.53;29.33;;;20.20;50.80;;;;;;5072116;28;20467;-53
2022/03/31 09:16:31;;;;;;;31.50;30.20;;;20.20;50.80;;;;;;5071945;28;20448;-50
2022/03/31 09:19:02;;;;;;;30.57;29.27;;;20.20;50.80;;;;;;5072053;28;20923;-54
2022/03/31 09:21:30;;;;;;;32.43;31.03;;;20.10;50.80;;;;;;5071964;28;20813;-54
2022/03/31 09:24:00;;;;;;;31.17;29.97;;;20.10;50.90;;;;;;5072073;28;20554;-57
2022/03/31 09:26:31;;;;;;;32.57;31.27;;;20.00;50.90;;;;;;5071713;28;20472;-53
2022/03/31 09:29:12;;;;;;;31.07;29.67;;;20.00;50.90;;;;;;5071967;28;20440;-54
2022/03/31 09:31:40;;;;;;;31.90;30.60;;;20.10;51.00;;;;;;5071885;28;20950;-51
2022/03/31 09:34:08;;;;;;;30.20;29.00;;;20.00;51.00;;;;;;5071565;28;20615;-53
2022/03/31 09:36:36;;;;;;;32.00;30.70;;;20.00;51.10;;;;;;5071474;28;20513;-50
2022/03/31 09:39:08;;;;;;;32.17;30.87;;;19.90;51.10;;;;;;5071669;28;20447;-51
2022/03/31 09:41:37;;;;;;;31.50;30.20;;;19.90;51.70;;;;;;5071738;28;20439;-52
2022/03/31 09:44:06;;;;;;;31.60;30.40;;;19.90;51.30;;;;;;5071792;28;20462;-51
2022/03/31 09:46:35;;;;;;;31.67;30.47;;;19.90;51.30;;;;;;5071407;28;20458;-54
2022/03/31 09:49:12;;;;;;;30.47;29.27;;;19.80;51.40;;;;;;5071637;28;20809;-52
2022/03/31 09:51:40;;;;;;;32.20;30.90;;;19.80;51.40;;;;;;5071664;28;20440;-54
2022/03/31 09:54:08;;;;;;;29.60;28.40;;;19.80;51.40;;;;;;5071315;28;20483;-52
2022/03/31 09:56:38;;;;;;;31.57;30.33;;;19.80;51.40;;;;;;5071354;28;20458;-52
2022/03/31 09:59:07;;;;;;;31.40;30.07;;;19.80;51.40;;;;;;5071475;28;20448;-50
2022/03/31 10:01:35;;;;;;;30.40;29.20;;;19.80;51.40;;;;;;5071509;28;20443;-52
2022/03/31 10:04:02;;;;;;;30.80;29.53;;;19.70;51.40;;;;;;5071376;28;20490;-52
2022/03/31 10:06:30;;;;;;;31.03;29.77;;;19.70;51.40;;;;;;5071250;28;20804;-50
2022/03/31 10:08:57;;;;;;;30.60;29.30;;;19.70;51.50;;;;;;5071514;28;20456;-51
2022/03/31 10:11:28;;;;;;;31.60;30.30;;;19.70;51.50;;;;;;5071406;28;20444;-52
2022/03/31 10:14:21;;;;;;;30.83;29.53;;;19.80;51.60;;;;;;5071382;28;20467;-53
2022/03/31 10:16:53;;;;;;;30.80;29.60;;;19.80;51.50;;;;;;5071234;28;20443;-55
2022/03/31 10:19:28;;;;;;;31.10;29.90;;;19.90;51.40;;;;;;5071405;28;20443;-50
2022/03/31 10:21:59;;;;;;;32.47;31.17;;;20.00;51.10;;;;;;5071225;28;20452;-51
2022/03/31 10:27:15;;;;;;;31.67;30.37;;;20.20;50.80;;;;;;5071252;28;20473;-51
2022/03/31 10:29:43;;;;;;;30.70;29.40;;;20.30;50.50;;;;;;5071307;28;20436;-51
2022/03/31 10:32:20;;;;;;;31.30;30.10;;;20.30;50.30;;;;;;5071258;28;20444;-50
2022/03/31 10:34:48;;;;;;;31.60;30.30;;;20.40;50.20;;;;;;5071341;28;20447;-53
2022/03/31 10:37:17;;;;;;;32.10;30.80;;;20.40;50.00;;;;;;5070964;28;20483;-51
2022/03/31 10:39:55;;;;;;;32.53;31.23;;;20.50;49.90;;;;;;5071114;28;20561;-51
2022/03/31 10:42:24;;;;;;;30.17;28.97;;;20.50;49.70;;;;;;5071151;28;20443;-50
2022/03/31 10:45:02;;;;;;;32.07;30.77;;;20.60;49.60;;;;;;5071574;28;20861;-56
2022/03/31 10:47:33;;;;;;;30.70;29.50;;;20.60;49.50;;;;;;5074818;28;20449;-50
2022/03/31 10:49:59;;;;;;;30.93;29.70;;;20.60;49.40;;;;;;5075072;28;20447;-51
2022/03/31 10:52:28;;;;;;;30.73;29.50;;;20.60;49.30;;;;;;5074654;28;20946;-51
2022/03/31 10:55:06;;;;;;;31.07;29.80;;;20.70;49.20;;;;;;5074938;28;20483;-52
2022/03/31 10:57:41;;;;;;;30.47;29.17;;;20.70;49.00;;;;;;5074626;28;20806;-53
2022/03/31 11:00:09;;;;;;;29.77;28.63;;;20.70;49.00;;;;;;5074673;28;20899;-51
2022/03/31 11:02:40;;;;;;;32.23;30.93;;;20.70;49.00;;;;;;5074729;28;20447;-51
2022/03/31 11:05:08;;;;;;;30.47;29.20;;;20.70;48.90;;;;;;5074507;28;20448;-53
2022/03/31 11:07:35;;;;;;;30.87;29.67;;;20.70;48.80;;;;;;5074418;28;20457;-53
2022/03/31 11:10:04;;;;;;;29.80;28.60;;;20.70;48.80;;;;;;5074587;28;20446;-53
2022/03/31 11:12:32;;;;;;;28.73;27.53;;;20.60;48.80;;;;;;5074445;28;20439;-50
2022/03/31 11:15:01;;;;;;;31.17;29.97;;;20.60;48.90;;;;;;5074335;28;21008;-51
2022/03/31 11:17:28;;;;;;;31.03;29.77;;;20.50;49.00;;;;;;5074190;28;20443;-52
2022/03/31 11:19:55;;;;;;;30.73;29.53;;;20.40;49.00;;;;;;5074346;28;20482;-53
2022/03/31 11:22:23;;;;;;;30.13;28.93;;;20.40;49.20;;;;;;5074216;28;20443;-54
2022/03/31 11:24:51;;;;;;;32.30;31.10;;;20.40;49.20;;;;;;5074338;28;20447;-55
2022/03/31 11:27:31;;;;;;;31.50;30.20;;;20.40;49.20;;;;;;5073991;28;20452;-54
2022/03/31 11:29:59;;;;;;;30.73;29.53;;;20.30;49.20;;;;;;5074220;28;20439;-53
2022/03/31 11:32:32;;;;;;;29.80;28.70;;;20.30;49.20;;;;;;5074056;28;20452;-52
2022/03/31 11:34:59;;;;;;;28.87;27.77;;;20.20;49.30;;;;;;5074048;28;20459;-51
2022/03/31 11:37:26;;;;;;;30.80;29.50;;;20.20;49.40;;;;;;5073872;28;20848;-54
2022/03/31 11:39:53;;;;;;;31.47;30.27;;;20.20;49.50;;;;;;5073920;28;20845;-50
2022/03/31 11:42:21;;;;;;;30.23;29.03;;;20.10;49.50;;;;;;5073771;28;20546;-50
2022/03/31 11:44:47;;;;;;;31.37;29.90;;;20.10;49.50;;;;;;5074028;28;20830;-56
2022/03/31 11:47:20;;;;;;;28.67;27.47;;;20.20;49.60;;;;;;5073776;28;20455;-54
2022/03/31 11:50:00;;;;;;;30.60;29.40;;;20.10;49.50;;;;;;5073901;28;20451;-57
2022/03/31 11:52:31;;;;;;;31.60;30.40;;;20.20;49.50;;;;;;5073593;28;20439;-50
2022/03/31 11:55:00;;;;;;;31.80;30.60;;;20.20;49.40;;;;;;5074452;28;21090;-57
2022/03/31 11:57:28;;;;;;;31.87;30.67;;;20.20;49.50;;;;;;5073506;28;20454;-58
2022/03/31 11:59:55;;;;;;;31.90;30.50;;;20.10;49.40;;;;;;5073651;28;20538;-59
2022/03/31 12:02:23;;;;;;;30.97;29.67;;;20.10;49.40;;;;;;5073621;28;20861;-59
2022/03/31 12:04:50;;;;;;;30.97;29.77;;;20.10;49.40;;;;;;5073633;28;20444;-58
2022/03/31 12:07:20;;;;;;;29.90;28.70;;;20.10;49.40;;;;;;5073283;28;20439;-60
2022/03/31 12:09:48;;;;;;;31.10;29.90;;;20.10;49.40;;;;;;5073457;28;20439;-57
2022/03/31 12:12:17;;;;;;;31.27;30.07;;;20.10;49.30;;;;;;5073556;28;20448;-58
2022/03/31 12:14:53;;;;;;;30.40;29.20;;;20.10;49.30;;;;;;5073429;28;20447;-59
2022/03/31 12:17:20;;;;;;;29.97;28.67;;;20.20;49.40;;;;;;5073132;28;20939;-57
2022/03/31 12:19:49;;;;;;;30.07;28.90;;;20.20;49.40;;;;;;5073231;28;20810;-60
2022/03/31 12:22:16;;;;;;;31.63;30.43;;;20.20;49.30;;;;;;5073237;28;20447;-60
2022/03/31 12:24:50;;;;;;;29.97;28.80;;;20.40;49.30;;;;;;5073011;28;20455;-60
2022/03/31 12:27:18;;;;;;;32.77;31.47;;;20.50;49.00;;;;;;5072931;28;20439;-60
2022/03/31 12:29:46;;;;;;;29.33;28.10;;;20.60;48.80;;;;;;5073142;28;20861;-60
2022/03/31 12:32:14;;;;;;;28.60;27.50;;;20.60;48.60;;;;;;5073195;28;20439;-60
2022/03/31 12:34:52;;;;;;;30.00;28.90;;;20.70;48.50;;;;;;5072889;28;20830;-60
2022/03/31 12:37:28;;;;;;;31.40;30.20;;;20.70;49.00;;;;;;5072745;28;20854;-60